KFEW/FEW METAR and TAF weather

Enter ICAO airport designator
Station Type Date Time Source
KFEW METAR 2020/08/10 17:58 UTC NOAA

KFEW 101758Z 10002KT 10SM FEW200 25/11 A3027 RMK AO2A SLPNO WND DATA ESTMD ALSTG/SLP ESTMD $


Station Type Date Time Source
KFEW Decoded METAR 2020/08/10 17:58 UTC NOAA

Station name not available
Aug 10, 2020 - 01:58 PM EDT / 2020.08.10 1758 UTC
Wind: from the E (100 degrees) at 2 MPH (2 KT):0
Visibility: 10 mile(s):0
Sky conditions: mostly clear
Temperature: 77 F (25 C)
Dew Point: 51 F (11 C)
Relative Humidity: 41%
Pressure (altimeter): 30.27 in. Hg (1025 hPa)
ob: KFEW 101758Z 10002KT 10SM FEW200 25/11 A3027 RMK AO2A SLPNO WND DATA ESTMD ALSTG/SLP ESTMD
cycle: 18

Station Type Date Time Source
KFEW TAF UTC NOAA

Error!

Example: see airport list